Ifestos I — SV4139 — position and weather

sailwx.info

Track history (hours):
 
Tides and Currents Weather Stations Pressure Air Temp Water Temp Dewpoint Dewpoint Depression Visibility Wind Speed Wind Dir Waves Ship Positions

Ifestos I

Last reported at 2017-Aug-23 13:23 UTC. Time now 2017-Aug-23 23:21 UTC.
Position N 37°57' E 023°37'.

Length 30 m.

Type: Tug. MMSI: 237070500.

Date/timePositionNaut miles runAvg speedWind from/ knotsBaromVisibWave heightAir tempDewpointWater temp
2017-Aug-23 13:23N 37°57' E 023°37'0 0.0
2017-Aug-23 13:00N 37°57' E 023°37'0 0.0
2017-Aug-23 12:31N 37°57' E 023°37'0 0.0
2017-Aug-23 12:00N 37°57' E 023°37'0 0.0
2017-Aug-23 11:31N 37°57' E 023°37'0 0.0
2017-Aug-23 11:01N 37°57' E 023°37'0 0.0
2017-Aug-23 10:31N 37°57' E 023°37'3 5.1
2017-Aug-23 10:01N 37°56' E 023°34'2 3.2
2017-Aug-23 09:31N 37°57' E 023°33'0 1.0
2017-Aug-23 09:01N 37°57' E 023°33'0 0.8
2017-Aug-23 08:31N 37°58' E 023°33'0 0.0
2017-Aug-23 08:00N 37°58' E 023°33'0 0.0
2017-Aug-23 07:30N 37°58' E 023°33'0 0.0
2017-Aug-23 07:01N 37°58' E 023°33'0 0.0
2017-Aug-23 06:31N 37°58' E 023°33'0 0.0
2017-Aug-23 06:01N 37°58' E 023°33'0 0.0
2017-Aug-23 05:31N 37°58' E 023°33'1 2.4
2017-Aug-23 05:00N 37°57' E 023°35'1 1.2
2017-Aug-23 04:31N 37°57' E 023°35'1 2.0
2017-Aug-23 04:00N 37°57' E 023°36'0 0.0
2017-Aug-23 03:30N 37°57' E 023°36'0 0.0
2017-Aug-23 03:00N 37°57' E 023°36'0 0.0
2017-Aug-22 17:23N 37°57' E 023°36'0 0.0
2017-Aug-22 17:00N 37°57' E 023°36'0 0.0
2017-Aug-22 16:30N 37°57' E 023°36'0 0.0
2017-Aug-22 16:00N 37°57' E 023°36'0 0.0
2017-Aug-22 15:30N 37°57' E 023°36'0 0.0
2017-Aug-22 15:00N 37°57' E 023°36'0 0.0
2017-Aug-22 14:30N 37°57' E 023°36'1 2.1
2017-Aug-22 14:00N 37°56' E 023°36'1 2.1
2017-Aug-22 13:30N 37°57' E 023°36'0 0.0
2017-Aug-22 13:00N 37°57' E 023°36'0 0.0
2017-Aug-22 12:30N 37°57' E 023°36'0 0.8
2017-Aug-22 12:00N 37°57' E 023°36'0 0.8
2017-Aug-22 11:30N 37°57' E 023°36'0 0.0
2017-Aug-22 11:00N 37°57' E 023°36'0 0.0
2017-Aug-22 10:30N 37°57' E 023°36'0 0.0
2017-Aug-22 10:00N 37°57' E 023°36'0 0.0
2017-Aug-22 09:30N 37°57' E 023°36'0 0.0
2017-Aug-22 09:00N 37°57' E 023°36'3 5.1
2017-Aug-22 08:31N 37°57' E 023°33'3 6.9
2017-Aug-22 08:00N 38°01' E 023°34'1 2.7
2017-Aug-22 07:30N 38°02' E 023°36'1 2.3
2017-Aug-22 07:00N 38°01' E 023°35'4 7.2
2017-Aug-22 06:30N 37°57' E 023°34'1 2.9
2017-Aug-22 06:00N 37°57' E 023°36'0 0.0
2017-Aug-22 05:30N 37°57' E 023°36'0 0.0
2017-Aug-22 05:00N 37°57' E 023°36'1 1.7
2017-Aug-22 04:30N 37°57' E 023°35'1 2.2
2017-Aug-22 04:00N 37°56' E 023°36'1 2.6
2017-Aug-22 03:30N 37°57' E 023°36'0 0.0
2017-Aug-22 03:00N 37°57' E 023°36'0 0.0
2017-Aug-21 16:28N 37°57' E 023°36'0 0.0
2017-Aug-21 16:00N 37°57' E 023°36'0 0.0
2017-Aug-21 15:31N 37°57' E 023°36'0 0.0
2017-Aug-21 15:00N 37°57' E 023°36'0 0.0
2017-Aug-21 14:30N 37°57' E 023°36'0 0.0
2017-Aug-21 14:01N 37°57' E 023°36'0 0.0
2017-Aug-21 13:30N 37°57' E 023°36'0 0.0
2017-Aug-21 13:01N 37°57' E 023°36'0 0.0
2017-Aug-21 12:29N 37°57' E 023°36'0 0.0
2017-Aug-21 12:00N 37°57' E 023°36'0 0.0
2017-Aug-21 11:30N 37°57' E 023°36'3 5.5
2017-Aug-21 11:00N 37°58' E 023°33'2 3.5
2017-Aug-21 10:30N 37°59' E 023°34'1 1.7
2017-Aug-21 10:00N 37°60' E 023°33'1 2.1
2017-Aug-21 09:30N 38°00' E 023°32'1 2.1
2017-Aug-21 09:00N 38°01' E 023°31'1 1.9
2017-Aug-21 08:31N 38°01' E 023°30'1 1.4
2017-Aug-21 08:00N 38°00' E 023°29'2 4.5
2017-Aug-21 07:30N 38°02' E 023°30'2 4.5
2017-Aug-21 07:00N 38°01' E 023°28'0 0.2
2017-Aug-21 06:31N 38°00' E 023°28'1 2.3
2017-Aug-21 06:00N 38°01' E 023°30'4 8.8
2017-Aug-21 05:30N 38°01' E 023°35'0 0.2
2017-Aug-21 05:00N 38°01' E 023°35'0 0.0
2017-Aug-21 04:31N 38°01' E 023°35'0 0.0
2017-Aug-21 04:00N 38°01' E 023°35'0 0.0
2017-Aug-21 03:30N 38°01' E 023°35'0 0.0
2017-Aug-21 03:01N 38°01' E 023°35'0 0.0
2017-Aug-21 02:31N 38°01' E 023°35'0 0.0
2017-Aug-21 02:00N 38°01' E 023°35'0 0.0
2017-Aug-21 01:30N 38°01' E 023°35'0 0.0
2017-Aug-21 01:01N 38°01' E 023°35'0 0.0
2017-Aug-21 00:30N 38°01' E 023°35'0 0.0
2017-Aug-21 00:00N 38°01' E 023°35'0 0.0
2017-Aug-20 23:31N 38°01' E 023°35'0 0.0
2017-Aug-20 23:01N 38°01' E 023°35'0 0.0
2017-Aug-20 22:30N 38°01' E 023°35'0 0.0
2017-Aug-20 22:00N 38°01' E 023°35'0 0.0
2017-Aug-20 21:31N 38°01' E 023°35'0 0.0
2017-Aug-20 21:00N 38°01' E 023°35'0 0.0
2017-Aug-20 20:30N 38°01' E 023°35'0 0.0
2017-Aug-20 20:00N 38°01' E 023°35'0 0.0
2017-Aug-20 19:30N 38°01' E 023°35'0 0.0
2017-Aug-20 19:00N 38°01' E 023°35'0 0.0
2017-Aug-20 18:30N 38°01' E 023°35'0 0.0
2017-Aug-20 18:00N 38°01' E 023°35'0 0.0
2017-Aug-20 17:30N 38°01' E 023°35'0 0.0
2017-Aug-20 17:00N 38°01' E 023°35'0 0.0
2017-Aug-20 16:30N 38°01' E 023°35'0 0.0
2017-Aug-20 16:01N 38°01' E 023°35'0 0.1
2017-Aug-20 15:30N 38°01' E 023°35'0 0.4
2017-Aug-20 15:00N 38°02' E 023°36'0 0.2
2017-Aug-20 14:30N 38°02' E 023°36'0 0.5
2017-Aug-20 14:00N 38°01' E 023°36'0 0.0
2017-Aug-20 13:30N 38°01' E 023°36'0 0.0
2017-Aug-20 13:00N 38°01' E 023°36'0 0.0
2017-Aug-20 12:31N 38°01' E 023°36'0 0.0
2017-Aug-20 12:00N 38°01' E 023°36'0 0.0
2017-Aug-20 11:30N 38°01' E 023°36'0 0.0
2017-Aug-20 11:00N 38°01' E 023°36'0 0.0
2017-Aug-20 10:30N 38°01' E 023°36'0 0.0
2017-Aug-20 10:00N 38°01' E 023°36'0 0.0
2017-Aug-20 09:30N 38°01' E 023°36'0 0.0
2017-Aug-20 09:00N 38°01' E 023°36'0 0.0
2017-Aug-20 08:30N 38°01' E 023°36'0 0.0
2017-Aug-20 08:00N 38°01' E 023°36'0 0.0
2017-Aug-20 07:30N 38°01' E 023°36'0 0.0
2017-Aug-20 07:00N 38°01' E 023°36'0 0.0
2017-Aug-20 06:30N 38°01' E 023°36'0 0.0
2017-Aug-20 06:00N 38°01' E 023°36'0 0.0
2017-Aug-20 05:30N 38°01' E 023°36'0 0.0
2017-Aug-20 05:01N 38°01' E 023°36'0 0.0
2017-Aug-20 04:30N 38°01' E 023°36'0 0.0
2017-Aug-20 04:00N 38°01' E 023°36'0 0.0
2017-Aug-20 03:30N 38°01' E 023°36'0 0.0
2017-Aug-20 03:01N 38°01' E 023°36'0 0.0
2017-Aug-20 02:30N 38°01' E 023°36'0 0.0
2017-Aug-20 02:00N 38°01' E 023°36'0 0.0
2017-Aug-20 01:30N 38°01' E 023°36'0 0.0
2017-Aug-20 01:00N 38°01' E 023°36'0 0.0
2017-Aug-20 00:30N 38°01' E 023°36'0 0.0
2017-Aug-20 00:00N 38°01' E 023°36'0 0.0
2017-Aug-19 23:31N 38°01' E 023°36'0 0.0
2017-Aug-19 23:00N 38°01' E 023°36'0 0.0
2017-Aug-19 22:31N 38°01' E 023°36'0 0.0
2017-Aug-19 22:00N 38°01' E 023°36'0 0.0
2017-Aug-19 21:30N 38°01' E 023°36'0 0.0
2017-Aug-19 21:00N 38°01' E 023°36'0 0.0
2017-Aug-19 20:31N 38°01' E 023°36'0 0.0
2017-Aug-19 20:00N 38°01' E 023°36'0 0.0
2017-Aug-19 19:30N 38°01' E 023°36'0 0.0
2017-Aug-19 19:00N 38°01' E 023°36'0 0.0
2017-Aug-19 18:30N 38°01' E 023°36'0 0.0
2017-Aug-19 18:00N 38°01' E 023°36'0 0.0
2017-Aug-19 17:30N 38°01' E 023°36'0 0.0
2017-Aug-19 17:00N 38°01' E 023°36'0 0.0
2017-Aug-19 16:30N 38°01' E 023°36'0 0.0
2017-Aug-19 16:00N 38°01' E 023°36'0 0.1
2017-Aug-19 15:30N 38°01' E 023°35'0 0.0
2017-Aug-19 15:00N 38°01' E 023°35'0 0.0
2017-Aug-19 14:00N 38°01' E 023°35'0 0.0
2017-Aug-19 13:30N 38°01' E 023°35'0 0.0
2017-Aug-19 13:00N 38°01' E 023°35'0 0.0
2017-Aug-19 12:30N 38°01' E 023°35'0 0.0
2017-Aug-19 12:00N 38°01' E 023°35'0 0.0
2017-Aug-19 11:30N 38°01' E 023°35'0 1.0
2017-Aug-19 11:00N 38°02' E 023°35'2 3.5
2017-Aug-19 10:30N 38°00' E 023°33'4 7.1
2017-Aug-19 10:00N 37°57' E 023°35'1 2.2
2017-Aug-19 09:30N 37°57' E 023°36'0 0.0
2017-Aug-19 09:00N 37°57' E 023°36'0 0.0
2017-Aug-19 08:30N 37°57' E 023°36'0 0.0
2017-Aug-19 08:00N 37°57' E 023°36'0 0.0
2017-Aug-19 07:30N 37°57' E 023°36'0 0.0
2017-Aug-19 07:00N 37°57' E 023°36'1 1.6
2017-Aug-19 06:30N 37°57' E 023°35'0 0.3
2017-Aug-19 06:01N 37°57' E 023°35'1 2.4
2017-Aug-19 05:30N 37°56' E 023°36'1 1.7
2017-Aug-19 05:00N 37°57' E 023°36'0 0.0
2017-Aug-19 04:31N 37°57' E 023°36'1 1.3
2017-Aug-19 04:00N 37°57' E 023°35'1 1.8
2017-Aug-19 03:31N 37°57' E 023°36'0 0.0
2017-Aug-19 03:00N 37°57' E 023°36'0 0.0
2017-Aug-17 21:46N 37°57' E 023°36'0 0.0
2017-Aug-17 21:30N 37°57' E 023°36'0 0.0
2017-Aug-17 21:01N 37°57' E 023°36'0 0.0
2017-Aug-17 20:31N 37°57' E 023°36'0 0.0
2017-Aug-17 20:01N 37°57' E 023°36'0 0.0
2017-Aug-17 19:30N 37°57' E 023°36'0 0.0
2017-Aug-17 19:01N 37°57' E 023°36'0 0.0
2017-Aug-17 18:30N 37°57' E 023°36'0 0.0
2017-Aug-17 18:01N 37°57' E 023°36'0 0.9
2017-Aug-17 17:31N 37°57' E 023°36'0 0.9
2017-Aug-17 17:01N 37°57' E 023°36'0 0.0
2017-Aug-17 16:30N 37°57' E 023°36'0 0.0
2017-Aug-17 16:01N 37°57' E 023°36'0 0.0
2017-Aug-17 15:31N 37°57' E 023°36'0 0.0
2017-Aug-17 15:01N 37°57' E 023°36'0 0.0
2017-Aug-17 14:30N 37°57' E 023°36'0 0.0
2017-Aug-17 14:00N 37°57' E 023°36'0 0.0
2017-Aug-17 13:30N 37°57' E 023°36'0 0.0
2017-Aug-17 13:00N 37°57' E 023°36'0 0.0
2017-Aug-17 12:30N 37°57' E 023°36'3 5.4
2017-Aug-17 12:01N 37°58' E 023°33'4 8.9
2017-Aug-17 11:31N 38°02' E 023°36'1 2.8
2017-Aug-17 11:01N 38°01' E 023°34'1 3.0
2017-Aug-17 10:31N 38°02' E 023°32'0 0.0
2017-Aug-17 10:01N 38°02' E 023°32'0 0.0
2017-Aug-17 09:30N 38°02' E 023°32'0 0.0
2017-Aug-17 09:01N 38°02' E 023°32'0 0.0
2017-Aug-17 08:31N 38°02' E 023°32'0 0.0
2017-Aug-17 08:00N 38°02' E 023°32'0 0.0
2017-Aug-17 07:30N 38°02' E 023°32'1 1.4
2017-Aug-17 07:00N 38°02' E 023°32'1 2.7
2017-Aug-17 06:30N 38°02' E 023°30'0 0.2
2017-Aug-17 06:00N 38°02' E 023°30'0 0.4
2017-Aug-17 05:31N 38°02' E 023°30'1 1.8
2017-Aug-17 05:01N 38°01' E 023°31'5 9.3
2017-Aug-17 04:31N 37°57' E 023°34'1 3.0
2017-Aug-17 04:01N 37°57' E 023°36'0 0.2
2017-Aug-17 03:31N 37°57' E 023°35'1 1.2
2017-Aug-17 03:00N 37°57' E 023°36'0 0.0
2017-Aug-16 17:23N 37°57' E 023°36'0 0.0
2017-Aug-16 17:00N 37°57' E 023°36'0 0.0
2017-Aug-16 16:31N 37°57' E 023°36'0 0.0
2017-Aug-16 16:00N 37°57' E 023°36'0 0.0
2017-Aug-16 15:31N 37°57' E 023°36'0 0.0
2017-Aug-16 15:00N 37°57' E 023°36'1 2.0
2017-Aug-16 14:31N 37°57' E 023°35'1 2.9
2017-Aug-16 14:00N 37°58' E 023°33'0 0.1
2017-Aug-16 13:31N 37°58' E 023°33'0 0.5
2017-Aug-16 13:00N 37°58' E 023°34'0 0.0
2017-Aug-16 12:31N 37°58' E 023°34'0 0.0
2017-Aug-16 12:01N 37°58' E 023°34'0 0.4
2017-Aug-16 11:30N 37°58' E 023°33'0 0.2
2017-Aug-16 11:00N 37°58' E 023°33'0 0.0
2017-Aug-16 10:30N 37°58' E 023°33'2 4.1
2017-Aug-16 10:00N 37°60' E 023°33'3 6.1
2017-Aug-16 09:30N 38°02' E 023°30'0 0.4
2017-Aug-16 09:00N 38°02' E 023°30'0 0.7
2017-Aug-16 08:30N 38°01' E 023°30'1 2.6
2017-Aug-16 08:01N 38°01' E 023°32'3 5.6
2017-Aug-16 07:30N 37°58' E 023°33'1 2.4
2017-Aug-16 07:00N 37°57' E 023°33'1 1.2
2017-Aug-16 06:31N 37°58' E 023°33'4 7.2
2017-Aug-16 06:00N 37°56' E 023°38'1 2.1
2017-Aug-16 05:30N 37°56' E 023°36'1 2.2
2017-Aug-16 05:01N 37°57' E 023°36'2 3.7
2017-Aug-16 04:31N 37°56' E 023°36'1 1.2
2017-Aug-16 04:01N 37°56' E 023°36'2 3.4
2017-Aug-16 03:31N 37°57' E 023°37'0 0.0
2017-Aug-16 03:00N 37°57' E 023°37'0 0.0
2017-Aug-14 13:45N 37°57' E 023°37'0 0.0
2017-Aug-14 13:30N 37°57' E 023°37'0 0.0
2017-Aug-14 13:00N 37°57' E 023°37'0 0.0
2017-Aug-14 12:31N 37°57' E 023°37'0 0.0
2017-Aug-14 12:00N 37°57' E 023°37'0 0.0
2017-Aug-14 11:30N 37°57' E 023°37'3 5.1
2017-Aug-14 11:00N 37°57' E 023°33'4 8.9
2017-Aug-14 10:31N 38°02' E 023°36'1 1.4
2017-Aug-14 10:00N 38°02' E 023°35'1 2.8
2017-Aug-14 09:31N 38°00' E 023°34'0 0.5
2017-Aug-14 09:01N 38°00' E 023°34'3 5.5
2017-Aug-14 08:31N 37°58' E 023°33'0 0.7
2017-Aug-14 08:01N 37°58' E 023°33'2 3.1
2017-Aug-14 07:31N 37°57' E 023°35'0 0.8
2017-Aug-14 07:00N 37°57' E 023°35'1 1.9
2017-Aug-14 06:30N 37°57' E 023°36'0 0.8
2017-Aug-14 06:00N 37°57' E 023°36'1 2.4
2017-Aug-14 05:31N 37°56' E 023°36'1 1.2
2017-Aug-14 05:00N 37°56' E 023°36'1 2.4
2017-Aug-14 04:31N 37°57' E 023°36'1 1.5
2017-Aug-14 04:00N 37°57' E 023°37'0 0.0
2017-Aug-14 03:30N 37°57' E 023°37'0 0.0
2017-Aug-14 03:01N 37°57' E 023°37'0 0.0
2017-Aug-13 16:30N 37°57' E 023°37'0 0.0
2017-Aug-13 16:00N 37°57' E 023°37'0 0.0
2017-Aug-13 15:30N 37°57' E 023°37'0 0.0
2017-Aug-13 15:00N 37°57' E 023°37'0 0.0
2017-Aug-13 14:30N 37°57' E 023°37'1 2.4
2017-Aug-13 14:00N 37°57' E 023°35'4 7.2
2017-Aug-13 13:31N 38°01' E 023°34'  
Track history (hours):
 
Tides and Currents Weather Stations Pressure Air Temp Water Temp Dewpoint Dewpoint Depression Visibility Wind Speed Wind Dir Waves Ship Positions

Ifestos I

Last reported at 2017-Aug-23 13:23 UTC. Time now 2017-Aug-23 23:21 UTC.
Position N 37°57' E 023°37'.

Length 30 m.

Type: Tug. MMSI: 237070500.

Date/timePositionNaut miles runAvg speedWind from/ knotsBaromVisibWave heightAir tempDewpointWater temp
2017-Aug-23 13:23N 37°57' E 023°37'0 0.0
2017-Aug-23 13:00N 37°57' E 023°37'0 0.0
2017-Aug-23 12:31N 37°57' E 023°37'0 0.0
2017-Aug-23 12:00N 37°57' E 023°37'0 0.0
2017-Aug-23 11:31N 37°57' E 023°37'0 0.0
2017-Aug-23 11:01N 37°57' E 023°37'0 0.0
2017-Aug-23 10:31N 37°57' E 023°37'3 5.1
2017-Aug-23 10:01N 37°56' E 023°34'2 3.2
2017-Aug-23 09:31N 37°57' E 023°33'0 1.0
2017-Aug-23 09:01N 37°57' E 023°33'0 0.8
2017-Aug-23 08:31N 37°58' E 023°33'0 0.0
2017-Aug-23 08:00N 37°58' E 023°33'0 0.0
2017-Aug-23 07:30N 37°58' E 023°33'0 0.0
2017-Aug-23 07:01N 37°58' E 023°33'0 0.0
2017-Aug-23 06:31N 37°58' E 023°33'0 0.0
2017-Aug-23 06:01N 37°58' E 023°33'0 0.0
2017-Aug-23 05:31N 37°58' E 023°33'1 2.4
2017-Aug-23 05:00N 37°57' E 023°35'1 1.2
2017-Aug-23 04:31N 37°57' E 023°35'1 2.0
2017-Aug-23 04:00N 37°57' E 023°36'0 0.0
2017-Aug-23 03:30N 37°57' E 023°36'0 0.0
2017-Aug-23 03:00N 37°57' E 023°36'0 0.0
2017-Aug-22 17:23N 37°57' E 023°36'0 0.0
2017-Aug-22 17:00N 37°57' E 023°36'0 0.0
2017-Aug-22 16:30N 37°57' E 023°36'0 0.0
2017-Aug-22 16:00N 37°57' E 023°36'0 0.0
2017-Aug-22 15:30N 37°57' E 023°36'0 0.0
2017-Aug-22 15:00N 37°57' E 023°36'0 0.0
2017-Aug-22 14:30N 37°57' E 023°36'1 2.1
2017-Aug-22 14:00N 37°56' E 023°36'1 2.1
2017-Aug-22 13:30N 37°57' E 023°36'0 0.0
2017-Aug-22 13:00N 37°57' E 023°36'0 0.0
2017-Aug-22 12:30N 37°57' E 023°36'0 0.8
2017-Aug-22 12:00N 37°57' E 023°36'0 0.8
2017-Aug-22 11:30N 37°57' E 023°36'0 0.0
2017-Aug-22 11:00N 37°57' E 023°36'0 0.0
2017-Aug-22 10:30N 37°57' E 023°36'0 0.0
2017-Aug-22 10:00N 37°57' E 023°36'0 0.0
2017-Aug-22 09:30N 37°57' E 023°36'0 0.0
2017-Aug-22 09:00N 37°57' E 023°36'3 5.1
2017-Aug-22 08:31N 37°57' E 023°33'3 6.9
2017-Aug-22 08:00N 38°01' E 023°34'1 2.7
2017-Aug-22 07:30N 38°02' E 023°36'1 2.3
2017-Aug-22 07:00N 38°01' E 023°35'4 7.2
2017-Aug-22 06:30N 37°57' E 023°34'1 2.9
2017-Aug-22 06:00N 37°57' E 023°36'0 0.0
2017-Aug-22 05:30N 37°57' E 023°36'0 0.0
2017-Aug-22 05:00N 37°57' E 023°36'1 1.7
2017-Aug-22 04:30N 37°57' E 023°35'1 2.2
2017-Aug-22 04:00N 37°56' E 023°36'1 2.6
2017-Aug-22 03:30N 37°57' E 023°36'0 0.0
2017-Aug-22 03:00N 37°57' E 023°36'0 0.0
2017-Aug-21 16:28N 37°57' E 023°36'0 0.0
2017-Aug-21 16:00N 37°57' E 023°36'0 0.0
2017-Aug-21 15:31N 37°57' E 023°36'0 0.0
2017-Aug-21 15:00N 37°57' E 023°36'0 0.0
2017-Aug-21 14:30N 37°57' E 023°36'0 0.0
2017-Aug-21 14:01N 37°57' E 023°36'0 0.0
2017-Aug-21 13:30N 37°57' E 023°36'0 0.0
2017-Aug-21 13:01N 37°57' E 023°36'0 0.0
2017-Aug-21 12:29N 37°57' E 023°36'0 0.0
2017-Aug-21 12:00N 37°57' E 023°36'0 0.0
2017-Aug-21 11:30N 37°57' E 023°36'3 5.5
2017-Aug-21 11:00N 37°58' E 023°33'2 3.5
2017-Aug-21 10:30N 37°59' E 023°34'1 1.7
2017-Aug-21 10:00N 37°60' E 023°33'1 2.1
2017-Aug-21 09:30N 38°00' E 023°32'1 2.1
2017-Aug-21 09:00N 38°01' E 023°31'1 1.9
2017-Aug-21 08:31N 38°01' E 023°30'1 1.4
2017-Aug-21 08:00N 38°00' E 023°29'2 4.5
2017-Aug-21 07:30N 38°02' E 023°30'2 4.5
2017-Aug-21 07:00N 38°01' E 023°28'0 0.2
2017-Aug-21 06:31N 38°00' E 023°28'1 2.3
2017-Aug-21 06:00N 38°01' E 023°30'4 8.8
2017-Aug-21 05:30N 38°01' E 023°35'0 0.2
2017-Aug-21 05:00N 38°01' E 023°35'0 0.0
2017-Aug-21 04:31N 38°01' E 023°35'0 0.0
2017-Aug-21 04:00N 38°01' E 023°35'0 0.0
2017-Aug-21 03:30N 38°01' E 023°35'0 0.0
2017-Aug-21 03:01N 38°01' E 023°35'0 0.0
2017-Aug-21 02:31N 38°01' E 023°35'0 0.0
2017-Aug-21 02:00N 38°01' E 023°35'0 0.0
2017-Aug-21 01:30N 38°01' E 023°35'0 0.0
2017-Aug-21 01:01N 38°01' E 023°35'0 0.0
2017-Aug-21 00:30N 38°01' E 023°35'0 0.0
2017-Aug-21 00:00N 38°01' E 023°35'0 0.0
2017-Aug-20 23:31N 38°01' E 023°35'0 0.0
2017-Aug-20 23:01N 38°01' E 023°35'0 0.0
2017-Aug-20 22:30N 38°01' E 023°35'0 0.0
2017-Aug-20 22:00N 38°01' E 023°35'0 0.0
2017-Aug-20 21:31N 38°01' E 023°35'0 0.0
2017-Aug-20 21:00N 38°01' E 023°35'0 0.0
2017-Aug-20 20:30N 38°01' E 023°35'0 0.0
2017-Aug-20 20:00N 38°01' E 023°35'0 0.0
2017-Aug-20 19:30N 38°01' E 023°35'0 0.0
2017-Aug-20 19:00N 38°01' E 023°35'0 0.0
2017-Aug-20 18:30N 38°01' E 023°35'0 0.0
2017-Aug-20 18:00N 38°01' E 023°35'0 0.0
2017-Aug-20 17:30N 38°01' E 023°35'0 0.0
2017-Aug-20 17:00N 38°01' E 023°35'0 0.0
2017-Aug-20 16:30N 38°01' E 023°35'0 0.0
2017-Aug-20 16:01N 38°01' E 023°35'0 0.1
2017-Aug-20 15:30N 38°01' E 023°35'0 0.4
2017-Aug-20 15:00N 38°02' E 023°36'0 0.2
2017-Aug-20 14:30N 38°02' E 023°36'0 0.5
2017-Aug-20 14:00N 38°01' E 023°36'0 0.0
2017-Aug-20 13:30N 38°01' E 023°36'0 0.0
2017-Aug-20 13:00N 38°01' E 023°36'0 0.0
2017-Aug-20 12:31N 38°01' E 023°36'0 0.0
2017-Aug-20 12:00N 38°01' E 023°36'0 0.0
2017-Aug-20 11:30N 38°01' E 023°36'0 0.0
2017-Aug-20 11:00N 38°01' E 023°36'0 0.0
2017-Aug-20 10:30N 38°01' E 023°36'0 0.0
2017-Aug-20 10:00N 38°01' E 023°36'0 0.0
2017-Aug-20 09:30N 38°01' E 023°36'0 0.0
2017-Aug-20 09:00N 38°01' E 023°36'0 0.0
2017-Aug-20 08:30N 38°01' E 023°36'0 0.0
2017-Aug-20 08:00N 38°01' E 023°36'0 0.0
2017-Aug-20 07:30N 38°01' E 023°36'0 0.0
2017-Aug-20 07:00N 38°01' E 023°36'0 0.0
2017-Aug-20 06:30N 38°01' E 023°36'0 0.0
2017-Aug-20 06:00N 38°01' E 023°36'0 0.0
2017-Aug-20 05:30N 38°01' E 023°36'0 0.0
2017-Aug-20 05:01N 38°01' E 023°36'0 0.0
2017-Aug-20 04:30N 38°01' E 023°36'0 0.0
2017-Aug-20 04:00N 38°01' E 023°36'0 0.0
2017-Aug-20 03:30N 38°01' E 023°36'0 0.0
2017-Aug-20 03:01N 38°01' E 023°36'0 0.0
2017-Aug-20 02:30N 38°01' E 023°36'0 0.0
2017-Aug-20 02:00N 38°01' E 023°36'0 0.0
2017-Aug-20 01:30N 38°01' E 023°36'0 0.0
2017-Aug-20 01:00N 38°01' E 023°36'0 0.0
2017-Aug-20 00:30N 38°01' E 023°36'0 0.0
2017-Aug-20 00:00N 38°01' E 023°36'0 0.0
2017-Aug-19 23:31N 38°01' E 023°36'0 0.0
2017-Aug-19 23:00N 38°01' E 023°36'0 0.0
2017-Aug-19 22:31N 38°01' E 023°36'0 0.0
2017-Aug-19 22:00N 38°01' E 023°36'0 0.0
2017-Aug-19 21:30N 38°01' E 023°36'0 0.0
2017-Aug-19 21:00N 38°01' E 023°36'0 0.0
2017-Aug-19 20:31N 38°01' E 023°36'0 0.0
2017-Aug-19 20:00N 38°01' E 023°36'0 0.0
2017-Aug-19 19:30N 38°01' E 023°36'0 0.0
2017-Aug-19 19:00N 38°01' E 023°36'0 0.0
2017-Aug-19 18:30N 38°01' E 023°36'0 0.0
2017-Aug-19 18:00N 38°01' E 023°36'0 0.0
2017-Aug-19 17:30N 38°01' E 023°36'0 0.0
2017-Aug-19 17:00N 38°01' E 023°36'0 0.0
2017-Aug-19 16:30N 38°01' E 023°36'0 0.0
2017-Aug-19 16:00N 38°01' E 023°36'0 0.1
2017-Aug-19 15:30N 38°01' E 023°35'0 0.0
2017-Aug-19 15:00N 38°01' E 023°35'0 0.0
2017-Aug-19 14:00N 38°01' E 023°35'0 0.0
2017-Aug-19 13:30N 38°01' E 023°35'0 0.0
2017-Aug-19 13:00N 38°01' E 023°35'0 0.0
2017-Aug-19 12:30N 38°01' E 023°35'0 0.0
2017-Aug-19 12:00N 38°01' E 023°35'0 0.0
2017-Aug-19 11:30N 38°01' E 023°35'0 1.0
2017-Aug-19 11:00N 38°02' E 023°35'2 3.5
2017-Aug-19 10:30N 38°00' E 023°33'4 7.1
2017-Aug-19 10:00N 37°57' E 023°35'1 2.2
2017-Aug-19 09:30N 37°57' E 023°36'0 0.0
2017-Aug-19 09:00N 37°57' E 023°36'0 0.0
2017-Aug-19 08:30N 37°57' E 023°36'0 0.0
2017-Aug-19 08:00N 37°57' E 023°36'0 0.0
2017-Aug-19 07:30N 37°57' E 023°36'0 0.0
2017-Aug-19 07:00N 37°57' E 023°36'1 1.6
2017-Aug-19 06:30N 37°57' E 023°35'0 0.3
2017-Aug-19 06:01N 37°57' E 023°35'1 2.4
2017-Aug-19 05:30N 37°56' E 023°36'1 1.7
2017-Aug-19 05:00N 37°57' E 023°36'0 0.0
2017-Aug-19 04:31N 37°57' E 023°36'1 1.3
2017-Aug-19 04:00N 37°57' E 023°35'1 1.8
2017-Aug-19 03:31N 37°57' E 023°36'0 0.0
2017-Aug-19 03:00N 37°57' E 023°36'0 0.0
2017-Aug-17 21:46N 37°57' E 023°36'0 0.0
2017-Aug-17 21:30N 37°57' E 023°36'0 0.0
2017-Aug-17 21:01N 37°57' E 023°36'0 0.0
2017-Aug-17 20:31N 37°57' E 023°36'0 0.0
2017-Aug-17 20:01N 37°57' E 023°36'0 0.0
2017-Aug-17 19:30N 37°57' E 023°36'0 0.0
2017-Aug-17 19:01N 37°57' E 023°36'0 0.0
2017-Aug-17 18:30N 37°57' E 023°36'0 0.0
2017-Aug-17 18:01N 37°57' E 023°36'0 0.9
2017-Aug-17 17:31N 37°57' E 023°36'0 0.9
2017-Aug-17 17:01N 37°57' E 023°36'0 0.0
2017-Aug-17 16:30N 37°57' E 023°36'0 0.0
2017-Aug-17 16:01N 37°57' E 023°36'0 0.0
2017-Aug-17 15:31N 37°57' E 023°36'0 0.0
2017-Aug-17 15:01N 37°57' E 023°36'0 0.0
2017-Aug-17 14:30N 37°57' E 023°36'0 0.0
2017-Aug-17 14:00N 37°57' E 023°36'0 0.0
2017-Aug-17 13:30N 37°57' E 023°36'0 0.0
2017-Aug-17 13:00N 37°57' E 023°36'0 0.0
2017-Aug-17 12:30N 37°57' E 023°36'3 5.4
2017-Aug-17 12:01N 37°58' E 023°33'4 8.9
2017-Aug-17 11:31N 38°02' E 023°36'1 2.8
2017-Aug-17 11:01N 38°01' E 023°34'1 3.0
2017-Aug-17 10:31N 38°02' E 023°32'0 0.0
2017-Aug-17 10:01N 38°02' E 023°32'0 0.0
2017-Aug-17 09:30N 38°02' E 023°32'0 0.0
2017-Aug-17 09:01N 38°02' E 023°32'0 0.0
2017-Aug-17 08:31N 38°02' E 023°32'0 0.0
2017-Aug-17 08:00N 38°02' E 023°32'0 0.0
2017-Aug-17 07:30N 38°02' E 023°32'1 1.4
2017-Aug-17 07:00N 38°02' E 023°32'1 2.7
2017-Aug-17 06:30N 38°02' E 023°30'0 0.2
2017-Aug-17 06:00N 38°02' E 023°30'0 0.4
2017-Aug-17 05:31N 38°02' E 023°30'1 1.8
2017-Aug-17 05:01N 38°01' E 023°31'5 9.3
2017-Aug-17 04:31N 37°57' E 023°34'1 3.0
2017-Aug-17 04:01N 37°57' E 023°36'0 0.2
2017-Aug-17 03:31N 37°57' E 023°35'1 1.2
2017-Aug-17 03:00N 37°57' E 023°36'0 0.0
2017-Aug-16 17:23N 37°57' E 023°36'0 0.0
2017-Aug-16 17:00N 37°57' E 023°36'0 0.0
2017-Aug-16 16:31N 37°57' E 023°36'0 0.0
2017-Aug-16 16:00N 37°57' E 023°36'0 0.0
2017-Aug-16 15:31N 37°57' E 023°36'0 0.0
2017-Aug-16 15:00N 37°57' E 023°36'1 2.0
2017-Aug-16 14:31N 37°57' E 023°35'1 2.9
2017-Aug-16 14:00N 37°58' E 023°33'0 0.1
2017-Aug-16 13:31N 37°58' E 023°33'0 0.5
2017-Aug-16 13:00N 37°58' E 023°34'0 0.0
2017-Aug-16 12:31N 37°58' E 023°34'0 0.0
2017-Aug-16 12:01N 37°58' E 023°34'0 0.4
2017-Aug-16 11:30N 37°58' E 023°33'0 0.2
2017-Aug-16 11:00N 37°58' E 023°33'0 0.0
2017-Aug-16 10:30N 37°58' E 023°33'2 4.1
2017-Aug-16 10:00N 37°60' E 023°33'3 6.1
2017-Aug-16 09:30N 38°02' E 023°30'0 0.4
2017-Aug-16 09:00N 38°02' E 023°30'0 0.7
2017-Aug-16 08:30N 38°01' E 023°30'1 2.6
2017-Aug-16 08:01N 38°01' E 023°32'3 5.6
2017-Aug-16 07:30N 37°58' E 023°33'1 2.4
2017-Aug-16 07:00N 37°57' E 023°33'1 1.2
2017-Aug-16 06:31N 37°58' E 023°33'4 7.2
2017-Aug-16 06:00N 37°56' E 023°38'1 2.1
2017-Aug-16 05:30N 37°56' E 023°36'1 2.2
2017-Aug-16 05:01N 37°57' E 023°36'2 3.7
2017-Aug-16 04:31N 37°56' E 023°36'1 1.2
2017-Aug-16 04:01N 37°56' E 023°36'2 3.4
2017-Aug-16 03:31N 37°57' E 023°37'0 0.0
2017-Aug-16 03:00N 37°57' E 023°37'0 0.0
2017-Aug-14 13:45N 37°57' E 023°37'0 0.0
2017-Aug-14 13:30N 37°57' E 023°37'0 0.0
2017-Aug-14 13:00N 37°57' E 023°37'0 0.0
2017-Aug-14 12:31N 37°57' E 023°37'0 0.0
2017-Aug-14 12:00N 37°57' E 023°37'0 0.0
2017-Aug-14 11:30N 37°57' E 023°37'3 5.1
2017-Aug-14 11:00N 37°57' E 023°33'4 8.9
2017-Aug-14 10:31N 38°02' E 023°36'1 1.4
2017-Aug-14 10:00N 38°02' E 023°35'1 2.8
2017-Aug-14 09:31N 38°00' E 023°34'0 0.5
2017-Aug-14 09:01N 38°00' E 023°34'3 5.5
2017-Aug-14 08:31N 37°58' E 023°33'0 0.7
2017-Aug-14 08:01N 37°58' E 023°33'2 3.1
2017-Aug-14 07:31N 37°57' E 023°35'0 0.8
2017-Aug-14 07:00N 37°57' E 023°35'1 1.9
2017-Aug-14 06:30N 37°57' E 023°36'0 0.8
2017-Aug-14 06:00N 37°57' E 023°36'1 2.4
2017-Aug-14 05:31N 37°56' E 023°36'1 1.2
2017-Aug-14 05:00N 37°56' E 023°36'1 2.4
2017-Aug-14 04:31N 37°57' E 023°36'1 1.5
2017-Aug-14 04:00N 37°57' E 023°37'0 0.0
2017-Aug-14 03:30N 37°57' E 023°37'0 0.0
2017-Aug-14 03:01N 37°57' E 023°37'0 0.0
2017-Aug-13 16:30N 37°57' E 023°37'0 0.0
2017-Aug-13 16:00N 37°57' E 023°37'0 0.0
2017-Aug-13 15:30N 37°57' E 023°37'0 0.0
2017-Aug-13 15:00N 37°57' E 023°37'0 0.0
2017-Aug-13 14:30N 37°57' E 023°37'1 2.4
2017-Aug-13 14:00N 37°57' E 023°35'4 7.2
2017-Aug-13 13:31N 38°01' E 023°34'  

Dump ship's entire track history